sensor_id;sensor_type;location;lat;lon;timestamp;pressure;altitude;pressure_sealevel;temperature;humidity
77288;BME280;66345;42.694;23.346;2023-03-09T00:01:37;94875.88;;;8.04;54.48
77288;BME280;66345;42.694;23.346;2023-03-09T00:04:03;94873.03;;;8.05;54.51
77288;BME280;66345;42.694;23.346;2023-03-09T00:06:29;94873.19;;;8.19;53.94
77288;BME280;66345;42.694;23.346;2023-03-09T00:08:55;94874.94;;;8.33;53.46
77288;BME280;66345;42.694;23.346;2023-03-09T00:11:22;94877.38;;;7.92;54.96
77288;BME280;66345;42.694;23.346;2023-03-09T00:13:49;94880.22;;;7.90;55.09
77288;BME280;66345;42.694;23.346;2023-03-09T00:16:18;94885.22;;;7.85;55.21
77288;BME280;66345;42.694;23.346;2023-03-09T00:18:45;94885.56;;;7.61;55.88
77288;BME280;66345;42.694;23.346;2023-03-09T00:21:11;94876.34;;;7.71;55.59
77288;BME280;66345;42.694;23.346;2023-03-09T00:23:55;94877.78;;;7.74;55.34
77288;BME280;66345;42.694;23.346;2023-03-09T00:26:20;94873.25;;;7.68;55.45
77288;BME280;66345;42.694;23.346;2023-03-09T00:28:46;94861.13;;;7.73;55.40
77288;BME280;66345;42.694;23.346;2023-03-09T00:31:11;94871.09;;;7.57;55.94
77288;BME280;66345;42.694;23.346;2023-03-09T00:33:36;94865.44;;;7.60;56.17
77288;BME280;66345;42.694;23.346;2023-03-09T00:36:02;94871.75;;;7.44;56.53
77288;BME280;66345;42.694;23.346;2023-03-09T00:38:28;94870.84;;;7.51;56.50
77288;BME280;66345;42.694;23.346;2023-03-09T00:40:53;94870.91;;;7.58;56.39
77288;BME280;66345;42.694;23.346;2023-03-09T00:43:19;94857.09;;;7.56;56.40
77288;BME280;66345;42.694;23.346;2023-03-09T00:45:44;94847.38;;;7.42;56.67
77288;BME280;66345;42.694;23.346;2023-03-09T00:48:10;94860.56;;;7.42;56.85
77288;BME280;66345;42.694;23.346;2023-03-09T00:50:35;94843.78;;;6.99;58.04
77288;BME280;66345;42.694;23.346;2023-03-09T00:53:01;94837.94;;;7.18;57.30
77288;BME280;66345;42.694;23.346;2023-03-09T00:55:28;94846.28;;;7.36;56.96
77288;BME280;66345;42.694;23.346;2023-03-09T00:57:54;94846.66;;;7.33;57.15
77288;BME280;66345;42.694;23.346;2023-03-09T01:00:20;94838.31;;;7.15;57.82
77288;BME280;66345;42.694;23.346;2023-03-09T01:02:45;94846.94;;;6.94;58.97
77288;BME280;66345;42.694;23.346;2023-03-09T01:05:11;94840.59;;;6.74;59.50
77288;BME280;66345;42.694;23.346;2023-03-09T01:07:36;94837.13;;;7.03;58.49
77288;BME280;66345;42.694;23.346;2023-03-09T01:10:03;94850.16;;;6.89;58.63
77288;BME280;66345;42.694;23.346;2023-03-09T01:12:29;94852.97;;;6.88;59.37
77288;BME280;66345;42.694;23.346;2023-03-09T01:14:56;94867.06;;;6.80;59.45
77288;BME280;66345;42.694;23.346;2023-03-09T01:17:22;94851.06;;;6.82;59.23
77288;BME280;66345;42.694;23.346;2023-03-09T01:19:49;94839.22;;;6.92;59.26
77288;BME280;66345;42.694;23.346;2023-03-09T01:22:14;94833.75;;;6.79;59.09
77288;BME280;66345;42.694;23.346;2023-03-09T01:24:40;94826.84;;;6.93;59.43
77288;BME280;66345;42.694;23.346;2023-03-09T01:27:06;94822.97;;;6.89;59.13
77288;BME280;66345;42.694;23.346;2023-03-09T01:29:33;94819.84;;;6.71;59.42
77288;BME280;66345;42.694;23.346;2023-03-09T01:31:58;94820.22;;;6.67;59.64
77288;BME280;66345;42.694;23.346;2023-03-09T01:34:24;94823.75;;;6.60;60.34
77288;BME280;66345;42.694;23.346;2023-03-09T01:36:49;94814.38;;;6.57;59.93
77288;BME280;66345;42.694;23.346;2023-03-09T01:39:14;94818.78;;;6.65;59.74
77288;BME280;66345;42.694;23.346;2023-03-09T01:41:40;94823.88;;;6.81;59.97
77288;BME280;66345;42.694;23.346;2023-03-09T01:44:10;94817.78;;;6.66;60.02
77288;BME280;66345;42.694;23.346;2023-03-09T01:49:22;94803.19;;;6.55;60.06
77288;BME280;66345;42.694;23.346;2023-03-09T01:51:55;94807.56;;;6.63;59.95
77288;BME280;66345;42.694;23.346;2023-03-09T01:54:34;94797.75;;;6.86;60.09
77288;BME280;66345;42.694;23.346;2023-03-09T02:00:00;94798.84;;;6.77;60.17
77288;BME280;66345;42.694;23.346;2023-03-09T02:02:31;94804.84;;;6.56;60.83
77288;BME280;66345;42.694;23.346;2023-03-09T02:05:01;94811.31;;;6.68;60.71
77288;BME280;66345;42.694;23.346;2023-03-09T02:07:30;94803.41;;;6.83;59.34
77288;BME280;66345;42.694;23.346;2023-03-09T02:10:25;94819.13;;;6.62;60.56
77288;BME280;66345;42.694;23.346;2023-03-09T02:12:55;94808.28;;;6.57;60.34
77288;BME280;66345;42.694;23.346;2023-03-09T02:15:22;94813.31;;;6.66;59.76
77288;BME280;66345;42.694;23.346;2023-03-09T02:17:48;94815.31;;;6.79;59.60
77288;BME280;66345;42.694;23.346;2023-03-09T02:23:33;94814.38;;;6.72;60.22
77288;BME280;66345;42.694;23.346;2023-03-09T02:26:21;94803.94;;;6.93;59.67
77288;BME280;66345;42.694;23.346;2023-03-09T02:28:48;94819.13;;;6.91;59.64
77288;BME280;66345;42.694;23.346;2023-03-09T02:31:15;94823.03;;;6.66;60.35
77288;BME280;66345;42.694;23.346;2023-03-09T02:33:40;94826.19;;;6.47;60.92
77288;BME280;66345;42.694;23.346;2023-03-09T02:36:06;94825.81;;;6.50;61.44
77288;BME280;66345;42.694;23.346;2023-03-09T02:38:32;94834.47;;;6.44;61.67
77288;BME280;66345;42.694;23.346;2023-03-09T02:40:59;94838.81;;;6.36;61.21
77288;BME280;66345;42.694;23.346;2023-03-09T02:43:29;94834.09;;;6.47;61.50
77288;BME280;66345;42.694;23.346;2023-03-09T02:45:56;94829.72;;;6.39;61.52
77288;BME280;66345;42.694;23.346;2023-03-09T02:48:21;94822.09;;;6.29;60.93
77288;BME280;66345;42.694;23.346;2023-03-09T02:50:47;94816.28;;;6.49;61.46
77288;BME280;66345;42.694;23.346;2023-03-09T02:53:12;94822.59;;;6.77;60.00
77288;BME280;66345;42.694;23.346;2023-03-09T02:55:37;94823.88;;;6.81;59.86
77288;BME280;66345;42.694;23.346;2023-03-09T02:58:04;94817.69;;;6.89;59.53
77288;BME280;66345;42.694;23.346;2023-03-09T03:00:30;94815.88;;;6.89;59.75
77288;BME280;66345;42.694;23.346;2023-03-09T03:02:55;94831.69;;;6.75;60.52
77288;BME280;66345;42.694;23.346;2023-03-09T03:05:21;94828.22;;;6.74;60.18
77288;BME280;66345;42.694;23.346;2023-03-09T03:07:47;94826.81;;;6.49;61.07
77288;BME280;66345;42.694;23.346;2023-03-09T03:10:13;94834.66;;;6.19;62.87
77288;BME280;66345;42.694;23.346;2023-03-09T03:12:39;94834.97;;;6.24;62.35
77288;BME280;66345;42.694;23.346;2023-03-09T03:15:05;94848.53;;;6.36;61.76
77288;BME280;66345;42.694;23.346;2023-03-09T03:17:31;94844.16;;;6.28;62.34
77288;BME280;66345;42.694;23.346;2023-03-09T03:19:56;94834.00;;;6.40;62.43
77288;BME280;66345;42.694;23.346;2023-03-09T03:22:22;94844.78;;;6.30;62.43
77288;BME280;66345;42.694;23.346;2023-03-09T03:24:47;94840.19;;;6.47;62.30
77288;BME280;66345;42.694;23.346;2023-03-09T03:27:13;94835.31;;;6.59;61.91
77288;BME280;66345;42.694;23.346;2023-03-09T03:29:38;94829.66;;;6.62;62.07
77288;BME280;66345;42.694;23.346;2023-03-09T03:32:04;94843.56;;;6.71;62.03
77288;BME280;66345;42.694;23.346;2023-03-09T03:34:30;94844.38;;;6.56;62.46
77288;BME280;66345;42.694;23.346;2023-03-09T03:36:55;94846.69;;;6.74;61.93
77288;BME280;66345;42.694;23.346;2023-03-09T03:39:21;94842.97;;;6.83;61.36
77288;BME280;66345;42.694;23.346;2023-03-09T03:41:46;94836.53;;;6.48;62.45
77288;BME280;66345;42.694;23.346;2023-03-09T03:44:12;94839.19;;;6.48;61.80
77288;BME280;66345;42.694;23.346;2023-03-09T03:46:38;94834.38;;;6.37;62.57
77288;BME280;66345;42.694;23.346;2023-03-09T03:49:03;94838.25;;;6.41;62.21
77288;BME280;66345;42.694;23.346;2023-03-09T03:51:29;94856.00;;;6.47;62.20
77288;BME280;66345;42.694;23.346;2023-03-09T03:53:54;94860.19;;;6.56;61.19
77288;BME280;66345;42.694;23.346;2023-03-09T03:56:20;94855.81;;;6.49;61.97
77288;BME280;66345;42.694;23.346;2023-03-09T03:58:45;94837.56;;;6.47;61.77
77288;BME280;66345;42.694;23.346;2023-03-09T04:01:11;94845.19;;;6.57;60.86
77288;BME280;66345;42.694;23.346;2023-03-09T04:03:36;94836.03;;;6.67;60.91
77288;BME280;66345;42.694;23.346;2023-03-09T04:06:02;94838.41;;;6.77;60.51
77288;BME280;66345;42.694;23.346;2023-03-09T04:08:29;94846.22;;;6.85;59.61
77288;BME280;66345;42.694;23.346;2023-03-09T04:10:56;94828.97;;;6.83;60.34
77288;BME280;66345;42.694;23.346;2023-03-09T04:13:22;94840.41;;;6.75;60.27
77288;BME280;66345;42.694;23.346;2023-03-09T04:15:48;94842.84;;;6.62;61.22
77288;BME280;66345;42.694;23.346;2023-03-09T04:18:13;94838.91;;;6.28;61.93
77288;BME280;66345;42.694;23.346;2023-03-09T04:20:40;94822.94;;;6.07;62.81
77288;BME280;66345;42.694;23.346;2023-03-09T04:23:07;94838.53;;;6.31;61.98
77288;BME280;66345;42.694;23.346;2023-03-09T04:25:33;94829.84;;;6.08;62.77
77288;BME280;66345;42.694;23.346;2023-03-09T04:27:59;94831.72;;;5.99;63.66
77288;BME280;66345;42.694;23.346;2023-03-09T04:30:25;94820.44;;;5.91;63.25
77288;BME280;66345;42.694;23.346;2023-03-09T04:32:51;94820.97;;;5.78;63.02
77288;BME280;66345;42.694;23.346;2023-03-09T04:35:17;94825.94;;;5.73;64.16
77288;BME280;66345;42.694;23.346;2023-03-09T04:37:43;94817.16;;;5.80;63.71
77288;BME280;66345;42.694;23.346;2023-03-09T04:40:09;94820.63;;;6.04;62.92
77288;BME280;66345;42.694;23.346;2023-03-09T04:42:35;94810.81;;;6.21;62.22
77288;BME280;66345;42.694;23.346;2023-03-09T04:45:00;94811.81;;;6.34;62.12
77288;BME280;66345;42.694;23.346;2023-03-09T04:47:26;94801.72;;;6.23;62.46
77288;BME280;66345;42.694;23.346;2023-03-09T04:49:51;94808.34;;;5.96;63.46
77288;BME280;66345;42.694;23.346;2023-03-09T04:52:16;94819.81;;;6.03;63.35
77288;BME280;66345;42.694;23.346;2023-03-09T04:54:42;94804.63;;;6.14;62.71
77288;BME280;66345;42.694;23.346;2023-03-09T04:57:07;94806.72;;;6.33;62.71
77288;BME280;66345;42.694;23.346;2023-03-09T04:59:33;94806.47;;;6.43;62.09
77288;BME280;66345;42.694;23.346;2023-03-09T05:01:58;94819.47;;;6.06;63.51
77288;BME280;66345;42.694;23.346;2023-03-09T05:04:24;94803.78;;;5.90;63.42
77288;BME280;66345;42.694;23.346;2023-03-09T05:06:50;94799.94;;;6.01;62.79
77288;BME280;66345;42.694;23.346;2023-03-09T05:09:15;94811.22;;;6.09;63.29
77288;BME280;66345;42.694;23.346;2023-03-09T05:11:42;94809.66;;;6.38;62.07
77288;BME280;66345;42.694;23.346;2023-03-09T05:14:08;94798.22;;;6.46;61.90
77288;BME280;66345;42.694;23.346;2023-03-09T05:16:34;94806.94;;;6.46;60.64
77288;BME280;66345;42.694;23.346;2023-03-09T05:18:59;94806.41;;;6.65;60.66
77288;BME280;66345;42.694;23.346;2023-03-09T05:21:25;94812.50;;;6.66;60.28
77288;BME280;66345;42.694;23.346;2023-03-09T05:23:50;94803.28;;;6.47;61.29
77288;BME280;66345;42.694;23.346;2023-03-09T05:26:16;94804.59;;;6.51;61.09
77288;BME280;66345;42.694;23.346;2023-03-09T05:28:41;94796.94;;;6.56;60.12
77288;BME280;66345;42.694;23.346;2023-03-09T05:31:08;94806.75;;;6.62;59.91
77288;BME280;66345;42.694;23.346;2023-03-09T05:33:35;94819.50;;;6.59;61.07
77288;BME280;66345;42.694;23.346;2023-03-09T05:36:00;94812.03;;;6.77;59.73
77288;BME280;66345;42.694;23.346;2023-03-09T05:38:26;94826.03;;;6.92;59.21
77288;BME280;66345;42.694;23.346;2023-03-09T05:40:51;94827.03;;;6.91;59.71
77288;BME280;66345;42.694;23.346;2023-03-09T05:43:16;94846.50;;;6.90;59.62
77288;BME280;66345;42.694;23.346;2023-03-09T05:45:42;94837.69;;;6.98;58.90
77288;BME280;66345;42.694;23.346;2023-03-09T05:48:08;94833.94;;;7.22;58.46
77288;BME280;66345;42.694;23.346;2023-03-09T05:50:33;94824.50;;;6.98;58.82
77288;BME280;66345;42.694;23.346;2023-03-09T05:52:59;94831.81;;;7.17;58.46
77288;BME280;66345;42.694;23.346;2023-03-09T05:55:24;94823.91;;;7.68;57.35
77288;BME280;66345;42.694;23.346;2023-03-09T05:57:49;94819.97;;;7.79;56.61
77288;BME280;66345;42.694;23.346;2023-03-09T06:00:15;94835.31;;;7.90;56.03
77288;BME280;66345;42.694;23.346;2023-03-09T06:02:42;94836.50;;;8.09;55.14
77288;BME280;66345;42.694;23.346;2023-03-09T06:05:08;94845.53;;;8.21;55.23
77288;BME280;66345;42.694;23.346;2023-03-09T06:07:33;94844.56;;;8.44;54.17
77288;BME280;66345;42.694;23.346;2023-03-09T06:09:59;94855.28;;;8.64;53.72
77288;BME280;66345;42.694;23.346;2023-03-09T06:12:25;94845.06;;;8.54;53.74
77288;BME280;66345;42.694;23.346;2023-03-09T06:14:51;94856.31;;;8.97;52.74
77288;BME280;66345;42.694;23.346;2023-03-09T06:17:18;94845.59;;;10.14;49.73
77288;BME280;66345;42.694;23.346;2023-03-09T06:19:43;94835.25;;;10.59;48.60
77288;BME280;66345;42.694;23.346;2023-03-09T06:22:09;94834.59;;;10.64;48.50
77288;BME280;66345;42.694;23.346;2023-03-09T06:24:35;94840.53;;;10.46;48.53
77288;BME280;66345;42.694;23.346;2023-03-09T06:27:01;94845.81;;;10.99;47.20
77288;BME280;66345;42.694;23.346;2023-03-09T06:29:27;94836.94;;;11.31;46.52
77288;BME280;66345;42.694;23.346;2023-03-09T06:31:53;94832.91;;;11.80;45.27
77288;BME280;66345;42.694;23.346;2023-03-09T06:34:18;94820.81;;;12.47;43.88
77288;BME280;66345;42.694;23.346;2023-03-09T06:36:44;94840.50;;;11.05;46.60
77288;BME280;66345;42.694;23.346;2023-03-09T06:39:09;94834.38;;;11.63;45.58
77288;BME280;66345;42.694;23.346;2023-03-09T06:41:35;94850.88;;;11.27;46.10
77288;BME280;66345;42.694;23.346;2023-03-09T06:44:01;94854.38;;;11.72;46.13
77288;BME280;66345;42.694;23.346;2023-03-09T06:46:27;94843.19;;;11.57;44.48
77288;BME280;66345;42.694;23.346;2023-03-09T06:48:53;94844.00;;;11.64;44.67
77288;BME280;66345;42.694;23.346;2023-03-09T06:51:18;94820.84;;;11.71;44.81
77288;BME280;66345;42.694;23.346;2023-03-09T06:53:44;94816.56;;;12.08;43.43
77288;BME280;66345;42.694;23.346;2023-03-09T06:56:10;94814.91;;;11.69;44.05
77288;BME280;66345;42.694;23.346;2023-03-09T06:58:36;94810.31;;;12.28;43.18
77288;BME280;66345;42.694;23.346;2023-03-09T07:01:06;94800.03;;;13.24;40.60
77288;BME280;66345;42.694;23.346;2023-03-09T07:03:32;94798.34;;;13.48;40.03
77288;BME280;66345;42.694;23.346;2023-03-09T07:05:57;94800.69;;;13.20;40.60
77288;BME280;66345;42.694;23.346;2023-03-09T07:08:23;94814.59;;;13.58;40.34
77288;BME280;66345;42.694;23.346;2023-03-09T07:10:48;94806.25;;;14.45;37.83
77288;BME280;66345;42.694;23.346;2023-03-09T07:13:14;94799.25;;;14.02;38.52
77288;BME280;66345;42.694;23.346;2023-03-09T07:15:40;94807.56;;;14.54;37.42
77288;BME280;66345;42.694;23.346;2023-03-09T07:18:06;94814.19;;;14.33;38.29
77288;BME280;66345;42.694;23.346;2023-03-09T07:20:32;94807.94;;;14.93;37.11
77288;BME280;66345;42.694;23.346;2023-03-09T07:22:58;94814.22;;;14.75;37.38
77288;BME280;66345;42.694;23.346;2023-03-09T07:25:23;94815.59;;;15.36;36.73
77288;BME280;66345;42.694;23.346;2023-03-09T07:27:50;94809.34;;;16.11;34.77
77288;BME280;66345;42.694;23.346;2023-03-09T07:30:16;94807.38;;;16.35;34.62
77288;BME280;66345;42.694;23.346;2023-03-09T07:32:41;94817.00;;;16.19;34.82
77288;BME280;66345;42.694;23.346;2023-03-09T07:35:07;94825.81;;;15.91;35.69
77288;BME280;66345;42.694;23.346;2023-03-09T07:37:33;94824.34;;;15.84;35.71
77288;BME280;66345;42.694;23.346;2023-03-09T07:39:59;94824.34;;;16.12;35.64
77288;BME280;66345;42.694;23.346;2023-03-09T07:42:24;94818.06;;;16.97;33.55
77288;BME280;66345;42.694;23.346;2023-03-09T07:44:50;94819.97;;;17.57;32.81
77288;BME280;66345;42.694;23.346;2023-03-09T07:47:15;94813.13;;;17.28;32.90
77288;BME280;66345;42.694;23.346;2023-03-09T07:49:40;94812.84;;;17.24;33.29
77288;BME280;66345;42.694;23.346;2023-03-09T07:52:07;94818.59;;;17.33;32.78
77288;BME280;66345;42.694;23.346;2023-03-09T07:54:32;94823.88;;;17.28;33.05
77288;BME280;66345;42.694;23.346;2023-03-09T07:56:59;94833.25;;;17.86;32.13
77288;BME280;66345;42.694;23.346;2023-03-09T07:59:24;94821.59;;;17.19;32.75
77288;BME280;66345;42.694;23.346;2023-03-09T08:01:50;94819.19;;;16.22;34.95
77288;BME280;66345;42.694;23.346;2023-03-09T08:04:18;94804.41;;;16.99;33.95
77288;BME280;66345;42.694;23.346;2023-03-09T08:06:43;94799.25;;;17.31;33.50
77288;BME280;66345;42.694;23.346;2023-03-09T08:09:14;94820.06;;;17.07;33.68
77288;BME280;66345;42.694;23.346;2023-03-09T08:11:40;94827.09;;;17.46;33.31
77288;BME280;66345;42.694;23.346;2023-03-09T08:14:05;94814.34;;;17.37;32.96
77288;BME280;66345;42.694;23.346;2023-03-09T08:16:31;94817.81;;;16.82;34.22
77288;BME280;66345;42.694;23.346;2023-03-09T08:18:56;94820.47;;;17.71;33.01
77288;BME280;66345;42.694;23.346;2023-03-09T08:21:22;94816.28;;;18.29;32.07
77288;BME280;66345;42.694;23.346;2023-03-09T08:23:47;94814.56;;;18.72;30.87
77288;BME280;66345;42.694;23.346;2023-03-09T08:26:15;94814.28;;;15.62;36.05
77288;BME280;66345;42.694;23.346;2023-03-09T08:28:41;94826.16;;;14.84;37.72
77288;BME280;66345;42.694;23.346;2023-03-09T08:31:12;94798.28;;;16.53;35.84
77288;BME280;66345;42.694;23.346;2023-03-09T08:33:39;94806.56;;;18.23;32.36
77288;BME280;66345;42.694;23.346;2023-03-09T08:36:17;94802.72;;;17.70;33.05
77288;BME280;66345;42.694;23.346;2023-03-09T08:38:43;94808.13;;;17.97;33.27
77288;BME280;66345;42.694;23.346;2023-03-09T08:41:09;94813.25;;;17.16;34.12
77288;BME280;66345;42.694;23.346;2023-03-09T08:43:34;94801.06;;;16.41;35.65
77288;BME280;66345;42.694;23.346;2023-03-09T08:46:00;94805.38;;;16.14;36.66
77288;BME280;66345;42.694;23.346;2023-03-09T08:48:25;94795.25;;;16.95;35.13
77288;BME280;66345;42.694;23.346;2023-03-09T08:50:51;94786.59;;;17.48;33.91
77288;BME280;66345;42.694;23.346;2023-03-09T08:53:17;94792.19;;;18.12;32.99
77288;BME280;66345;42.694;23.346;2023-03-09T08:55:45;94788.81;;;19.18;31.85
77288;BME280;66345;42.694;23.346;2023-03-09T08:58:11;94775.31;;;21.55;27.76
77288;BME280;66345;42.694;23.346;2023-03-09T09:00:37;94771.31;;;22.02;26.93
77288;BME280;66345;42.694;23.346;2023-03-09T09:03:03;94770.88;;;22.39;26.30
77288;BME280;66345;42.694;23.346;2023-03-09T09:05:29;94783.91;;;19.05;31.07
77288;BME280;66345;42.694;23.346;2023-03-09T09:07:54;94783.28;;;19.35;30.55
77288;BME280;66345;42.694;23.346;2023-03-09T09:10:19;94770.13;;;17.83;33.12
77288;BME280;66345;42.694;23.346;2023-03-09T09:12:45;94765.03;;;16.03;36.20
77288;BME280;66345;42.694;23.346;2023-03-09T09:15:11;94761.84;;;15.61;37.50
77288;BME280;66345;42.694;23.346;2023-03-09T09:17:39;94764.25;;;14.99;38.62
77288;BME280;66345;42.694;23.346;2023-03-09T09:20:05;94769.25;;;14.84;39.19
77288;BME280;66345;42.694;23.346;2023-03-09T09:22:32;94768.56;;;14.53;39.76
77288;BME280;66345;42.694;23.346;2023-03-09T09:24:58;94752.84;;;15.04;39.13
77288;BME280;66345;42.694;23.346;2023-03-09T09:27:24;94756.56;;;15.03;39.03
77288;BME280;66345;42.694;23.346;2023-03-09T09:29:50;94750.97;;;15.79;37.83
77288;BME280;66345;42.694;23.346;2023-03-09T09:32:18;94751.78;;;16.76;35.96
77288;BME280;66345;42.694;23.346;2023-03-09T09:34:44;94735.72;;;16.76;35.71
77288;BME280;66345;42.694;23.346;2023-03-09T09:37:10;94734.56;;;17.27;34.59
77288;BME280;66345;42.694;23.346;2023-03-09T09:39:37;94728.19;;;17.11;34.51
77288;BME280;66345;42.694;23.346;2023-03-09T09:42:07;94728.47;;;18.02;33.52
77288;BME280;66345;42.694;23.346;2023-03-09T09:44:42;94721.63;;;18.49;32.16
77288;BME280;66345;42.694;23.346;2023-03-09T09:47:29;94716.22;;;19.86;30.31
77288;BME280;66345;42.694;23.346;2023-03-09T09:49:58;94734.59;;;19.41;30.71
77288;BME280;66345;42.694;23.346;2023-03-09T10:00:42;94710.22;;;21.62;27.49
77288;BME280;66345;42.694;23.346;2023-03-09T10:03:31;94698.78;;;22.25;26.82
77288;BME280;66345;42.694;23.346;2023-03-09T10:06:16;94684.91;;;24.33;23.84
77288;BME280;66345;42.694;23.346;2023-03-09T10:08:56;94688.06;;;27.27;20.81
77288;BME280;66345;42.694;23.346;2023-03-09T10:11:27;94682.75;;;24.68;23.33
77288;BME280;66345;42.694;23.346;2023-03-09T10:16:37;94672.91;;;25.45;22.57
77288;BME280;66345;42.694;23.346;2023-03-09T10:19:08;94665.06;;;25.58;22.24
77288;BME280;66345;42.694;23.346;2023-03-09T10:21:46;94658.34;;;27.08;20.69
77288;BME280;66345;42.694;23.346;2023-03-09T10:24:23;94653.53;;;28.71;19.03
77288;BME280;66345;42.694;23.346;2023-03-09T10:29:50;94645.34;;;29.74;18.14
77288;BME280;66345;42.694;23.346;2023-03-09T10:32:21;94642.00;;;27.08;20.13
77288;BME280;66345;42.694;23.346;2023-03-09T10:34:54;94629.91;;;29.40;18.15
77288;BME280;66345;42.694;23.346;2023-03-09T10:37:37;94627.38;;;30.77;16.82
77288;BME280;66345;42.694;23.346;2023-03-09T10:40:07;94611.31;;;28.00;19.50
77288;BME280;66345;42.694;23.346;2023-03-09T10:42:38;94629.72;;;26.66;21.05
77288;BME280;66345;42.694;23.346;2023-03-09T10:48:04;94626.94;;;24.61;22.75
77288;BME280;66345;42.694;23.346;2023-03-09T10:50:34;94624.09;;;20.86;28.25
77288;BME280;66345;42.694;23.346;2023-03-09T10:53:23;94600.44;;;19.91;29.95
77288;BME280;66345;42.694;23.346;2023-03-09T10:55:52;94606.50;;;18.68;31.98
77288;BME280;66345;42.694;23.346;2023-03-09T10:58:21;94595.25;;;19.54;31.25
77288;BME280;66345;42.694;23.346;2023-03-09T11:01:01;94579.25;;;19.11;31.45
77288;BME280;66345;42.694;23.346;2023-03-09T11:03:39;94581.03;;;20.14;30.65
77288;BME280;66345;42.694;23.346;2023-03-09T11:08:59;94573.44;;;19.45;32.03
77288;BME280;66345;42.694;23.346;2023-03-09T11:11:26;94580.31;;;19.00;32.45
77288;BME280;66345;42.694;23.346;2023-03-09T11:13:53;94568.19;;;18.93;32.97
77288;BME280;66345;42.694;23.346;2023-03-09T11:16:30;94573.09;;;18.58;33.02
77288;BME280;66345;42.694;23.346;2023-03-09T11:19:11;94567.47;;;18.65;33.50
77288;BME280;66345;42.694;23.346;2023-03-09T11:21:45;94564.84;;;18.70;33.42
77288;BME280;66345;42.694;23.346;2023-03-09T11:24:14;94557.22;;;19.09;32.91
77288;BME280;66345;42.694;23.346;2023-03-09T11:26:50;94539.56;;;18.66;33.29
77288;BME280;66345;42.694;23.346;2023-03-09T11:32:09;94536.13;;;18.28;34.23
77288;BME280;66345;42.694;23.346;2023-03-09T11:34:41;94533.16;;;18.25;34.06
77288;BME280;66345;42.694;23.346;2023-03-09T11:37:22;94540.41;;;18.24;33.99
77288;BME280;66345;42.694;23.346;2023-03-09T11:39:52;94528.00;;;18.18;34.06
77288;BME280;66345;42.694;23.346;2023-03-09T11:42:28;94524.25;;;18.19;34.04
77288;BME280;66345;42.694;23.346;2023-03-09T11:44:55;94524.81;;;18.21;34.09
77288;BME280;66345;42.694;23.346;2023-03-09T11:47:37;94509.84;;;18.36;34.18
77288;BME280;66345;42.694;23.346;2023-03-09T11:50:12;94497.84;;;18.53;33.58
77288;BME280;66345;42.694;23.346;2023-03-09T11:52:46;94475.25;;;18.49;33.30
77288;BME280;66345;42.694;23.346;2023-03-09T11:55:19;94483.31;;;18.49;33.81
77288;BME280;66345;42.694;23.346;2023-03-09T11:57:49;94489.53;;;18.55;33.68
77288;BME280;66345;42.694;23.346;2023-03-09T12:00:20;94478.50;;;18.56;33.72
77288;BME280;66345;42.694;23.346;2023-03-09T12:02:58;94470.44;;;18.51;33.37
77288;BME280;66345;42.694;23.346;2023-03-09T12:05:28;94460.22;;;18.58;33.48
77288;BME280;66345;42.694;23.346;2023-03-09T12:08:16;94455.44;;;18.61;33.40
77288;BME280;66345;42.694;23.346;2023-03-09T12:10:53;94449.44;;;18.43;33.83
77288;BME280;66345;42.694;23.346;2023-03-09T12:13:25;94445.13;;;18.42;33.69
77288;BME280;66345;42.694;23.346;2023-03-09T12:18:27;94454.16;;;18.16;34.08
77288;BME280;66345;42.694;23.346;2023-03-09T12:21:02;94449.56;;;18.06;34.43
77288;BME280;66345;42.694;23.346;2023-03-09T12:23:43;94433.19;;;18.13;34.07
77288;BME280;66345;42.694;23.346;2023-03-09T12:26:29;94438.06;;;18.16;34.58
77288;BME280;66345;42.694;23.346;2023-03-09T12:29:21;94418.31;;;18.52;33.58
77288;BME280;66345;42.694;23.346;2023-03-09T12:32:49;94424.31;;;18.80;33.28
77288;BME280;66345;42.694;23.346;2023-03-09T12:35:00;94429.72;;;19.10;32.82
77288;BME280;66345;42.694;23.346;2023-03-09T12:40:29;94427.03;;;18.95;33.08
77288;BME280;66345;42.694;23.346;2023-03-09T12:42:57;94412.25;;;19.03;32.85
77288;BME280;66345;42.694;23.346;2023-03-09T12:45:27;94421.97;;;19.29;32.69
77288;BME280;66345;42.694;23.346;2023-03-09T13:06:56;94405.28;;;20.53;30.88
77288;BME280;66345;42.694;23.346;2023-03-09T13:09:35;94388.00;;;20.59;30.28
77288;BME280;66345;42.694;23.346;2023-03-09T13:22:44;94379.16;;;19.53;31.83
77288;BME280;66345;42.694;23.346;2023-03-09T13:25:27;94380.25;;;19.67;31.61
77288;BME280;66345;42.694;23.346;2023-03-09T13:28:02;94383.97;;;19.77;31.51
77288;BME280;66345;42.694;23.346;2023-03-09T13:30:28;94378.59;;;19.77;31.51
77288;BME280;66345;42.694;23.346;2023-03-09T13:35:26;94380.19;;;19.83;31.56
77288;BME280;66345;42.694;23.346;2023-03-09T13:37:58;94381.72;;;20.09;30.92
77288;BME280;66345;42.694;23.346;2023-03-09T13:40:31;94391.16;;;20.12;31.47
77288;BME280;66345;42.694;23.346;2023-03-09T13:43:01;94388.25;;;19.93;31.22
77288;BME280;66345;42.694;23.346;2023-03-09T13:45:30;94377.53;;;19.73;31.89
77288;BME280;66345;42.694;23.346;2023-03-09T13:48:02;94373.25;;;19.61;31.94
77288;BME280;66345;42.694;23.346;2023-03-09T13:50:31;94373.22;;;19.77;31.59
77288;BME280;66345;42.694;23.346;2023-03-09T13:55:39;94373.41;;;20.01;31.64
77288;BME280;66345;42.694;23.346;2023-03-09T13:58:18;94383.41;;;19.90;31.54
77288;BME280;66345;42.694;23.346;2023-03-09T14:00:59;94372.38;;;19.91;31.45
77288;BME280;66345;42.694;23.346;2023-03-09T14:03:28;94371.28;;;19.98;31.48
77288;BME280;66345;42.694;23.346;2023-03-09T14:06:02;94361.34;;;19.83;31.39
77288;BME280;66345;42.694;23.346;2023-03-09T14:08:39;94370.03;;;19.59;31.70
77288;BME280;66345;42.694;23.346;2023-03-09T14:11:06;94388.56;;;19.40;32.03
77288;BME280;66345;42.694;23.346;2023-03-09T14:13:34;94380.53;;;19.30;32.32